Time;durP1;ratioP1;P1;durP2;ratioP2;P2;SDS_P1;SDS_P2;PMS_P1;PMS_P2;Temp;Humidity;BMP_temperature;BMP_pressure;BME280_temperature;BME280_humidity;BME280_pressure;Samples;Min_cycle;Max_cycle;Signal;HPM_P1;HPM_P2
2022/08/05 00:00:17;;;;;;;2.38;0.73;;;18.50;75.90;;;;;;6107364;23;20029;-90
2022/08/05 00:02:45;;;;;;;0.50;0.30;;;18.50;76.00;;;;;;6086160;23;20085;-89
2022/08/05 00:05:20;;;;;;;0.82;0.30;;;18.50;76.00;;;;;;6116352;23;20068;-91
2022/08/05 00:08:08;;;;;;;0.35;0.35;;;18.50;76.10;;;;;;6106120;23;20021;-91
2022/08/05 00:10:57;;;;;;;0.93;0.35;;;18.50;76.10;;;;;;6097374;23;20021;-92
2022/08/05 00:13:29;;;;;;;1.20;0.30;;;18.40;76.20;;;;;;6085345;23;20017;-92
2022/08/05 00:16:06;;;;;;;1.15;0.40;;;18.40;76.50;;;;;;6090302;23;20540;-91
2022/08/05 00:18:35;;;;;;;0.73;0.40;;;18.30;76.80;;;;;;6079614;23;20116;-90
2022/08/05 00:21:04;;;;;;;0.93;0.38;;;18.30;76.70;;;;;;6080015;23;20024;-90
2022/08/05 00:23:32;;;;;;;0.95;0.52;;;18.30;76.80;;;;;;6080082;23;20113;-90
2022/08/05 00:26:19;;;;;;;2.28;0.95;;;18.20;77.00;;;;;;6092240;23;20339;-91
2022/08/05 00:28:48;;;;;;;0.55;0.30;;;18.20;76.70;;;;;;6081359;23;20026;-89
2022/08/05 00:31:15;;;;;;;0.80;0.38;;;18.10;77.00;;;;;;6081828;23;20018;-90
2022/08/05 00:34:03;;;;;;;2.83;0.50;;;18.10;76.90;;;;;;6092484;23;20029;-90
2022/08/05 00:36:51;;;;;;;1.88;0.50;;;18.00;77.10;;;;;;6092698;23;20052;-90
2022/08/05 00:39:41;;;;;;;0.90;0.47;;;18.00;77.10;;;;;;6095483;23;20072;-92
2022/08/05 00:42:31;;;;;;;0.32;0.20;;;18.00;77.30;;;;;;6089399;23;20024;-92
2022/08/05 00:44:59;;;;;;;1.13;0.40;;;18.00;77.30;;;;;;6077622;23;20022;-94
2022/08/05 00:47:26;;;;;;;0.68;0.20;;;18.00;76.90;;;;;;6079046;23;20021;-90
2022/08/05 00:50:13;;;;;;;1.23;0.35;;;17.90;76.80;;;;;;6091350;23;20032;-90
2022/08/05 00:52:41;;;;;;;1.42;0.50;;;17.90;76.70;;;;;;6079023;23;20017;-90
2022/08/05 00:55:12;;;;;;;1.42;0.50;;;17.90;76.80;;;;;;6079941;23;20088;-94
2022/08/05 00:57:40;;;;;;;0.68;0.30;;;17.90;76.90;;;;;;6079928;23;20017;-90
2022/08/05 01:00:26;;;;;;;1.15;0.40;;;17.90;77.00;;;;;;6088744;23;20022;-90
2022/08/05 01:02:54;;;;;;;1.70;0.60;;;17.80;76.30;;;;;;6079275;23;20013;-90
2022/08/05 01:05:21;;;;;;;0.82;0.30;;;17.80;75.90;;;;;;6081524;23;20021;-92
2022/08/05 01:07:49;;;;;;;0.20;0.10;;;17.70;76.10;;;;;;6086677;23;20096;-90
2022/08/05 01:10:42;;;;;;;0.45;0.20;;;17.70;75.90;;;;;;6096664;23;20457;-92
2022/08/05 01:13:37;;;;;;;1.13;0.30;;;17.70;76.30;;;;;;6107298;23;20033;-91
2022/08/05 01:16:33;;;;;;;0.28;0.10;;;17.70;76.40;;;;;;6130889;23;20517;-90
2022/08/05 01:19:07;;;;;;;1.88;0.45;;;17.70;76.60;;;;;;6079359;23;20018;-92
2022/08/05 01:22:06;;;;;;;0.63;0.40;;;17.70;76.40;;;;;;6079967;23;20013;-93
2022/08/05 01:25:06;;;;;;;1.20;0.50;;;17.60;76.30;;;;;;6129391;23;20101;-93
2022/08/05 01:28:10;;;;;;;4.80;0.45;;;17.60;76.40;;;;;;6104900;23;20208;-93
2022/08/05 01:35:55;;;;;;;0.52;0.38;;;17.40;76.50;;;;;;6197179;23;20036;-88
2022/08/05 01:38:25;;;;;;;0.68;0.30;;;17.40;76.60;;;;;;6135887;23;20139;-88
2022/08/05 01:41:01;;;;;;;0.70;0.40;;;17.40;76.70;;;;;;6136048;23;20024;-91
2022/08/05 01:43:42;;;;;;;1.15;0.20;;;17.30;76.80;;;;;;6147611;23;20078;-91
2022/08/05 01:46:21;;;;;;;0.47;0.28;;;17.30;76.90;;;;;;6136737;23;20079;-90
2022/08/05 01:49:10;;;;;;;;;;;17.30;77.10;;;;;;6148571;23;20024;-89
2022/08/05 01:51:57;;;;;;;1.23;0.43;;;17.30;77.30;;;;;;6164147;23;19915;-90
2022/08/05 01:55:00;;;;;;;1.00;0.40;;;17.20;77.60;;;;;;6146782;23;20024;-89
2022/08/05 01:57:46;;;;;;;1.20;0.55;;;17.20;78.30;;;;;;6140998;23;20021;-90
2022/08/05 02:00:43;;;;;;;0.20;0.10;;;17.10;78.30;;;;;;6148242;23;20032;-90
2022/08/05 02:03:32;;;;;;;0.90;0.30;;;17.20;78.60;;;;;;6139709;23;20401;-89
2022/08/05 02:06:18;;;;;;;1.58;0.30;;;17.20;78.80;;;;;;6125659;23;20091;-91
2022/08/05 02:09:04;;;;;;;0.85;0.38;;;17.10;79.50;;;;;;6143459;23;20095;-89
2022/08/05 02:12:00;;;;;;;0.20;0.20;;;17.00;79.80;;;;;;6141595;23;20081;-89
2022/08/05 02:14:47;;;;;;;0.77;0.40;;;16.90;80.20;;;;;;6136344;23;20017;-89
2022/08/05 02:17:49;;;;;;;0.85;0.45;;;16.90;80.60;;;;;;6142758;23;20096;-90
2022/08/05 02:20:43;;;;;;;0.20;0.20;;;16.80;80.90;;;;;;6128829;23;20025;-89
2022/08/05 02:23:12;;;;;;;2.28;0.40;;;16.80;80.90;;;;;;6124992;23;20064;-88
2022/08/05 02:25:42;;;;;;;0.80;0.30;;;16.80;81.10;;;;;;6122084;23;20085;-88
2022/08/05 02:28:18;;;;;;;0.82;0.30;;;16.80;81.40;;;;;;6152459;23;20032;-89
2022/08/05 02:30:58;;;;;;;0.30;0.20;;;16.80;81.60;;;;;;6152412;23;20093;-88
2022/08/05 02:33:25;;;;;;;0.40;0.32;;;16.80;81.70;;;;;;6144740;23;20021;-91
2022/08/05 02:36:05;;;;;;;0.88;0.40;;;16.80;81.70;;;;;;6138164;23;20036;-92
2022/08/05 02:38:35;;;;;;;0.88;0.30;;;16.70;81.80;;;;;;6139132;23;20017;-93
2022/08/05 02:41:02;;;;;;;0.73;0.30;;;16.70;82.00;;;;;;6136845;23;20021;-91
2022/08/05 02:43:44;;;;;;;0.80;0.38;;;16.70;82.00;;;;;;6139701;23;20018;-91
2022/08/05 02:46:31;;;;;;;0.88;0.60;;;16.70;82.20;;;;;;6131721;23;20299;-94
2022/08/05 02:49:00;;;;;;;0.70;0.32;;;16.70;82.20;;;;;;6127353;23;20020;-91
2022/08/05 02:51:27;;;;;;;0.30;0.30;;;16.70;82.40;;;;;;6136470;23;20113;-91
2022/08/05 02:54:14;;;;;;;1.58;0.60;;;16.70;82.20;;;;;;6141499;23;20075;-92
2022/08/05 02:57:01;;;;;;;0.85;0.30;;;16.70;82.40;;;;;;6136162;23;20025;-90
2022/08/05 02:59:30;;;;;;;2.33;0.60;;;16.60;82.60;;;;;;6125996;23;20353;-89
2022/08/05 03:02:19;;;;;;;0.25;0.20;;;16.60;82.40;;;;;;6129091;23;20124;-89
2022/08/05 03:04:47;;;;;;;0.20;0.20;;;16.60;82.40;;;;;;6134649;23;20052;-90
2022/08/05 03:07:19;;;;;;;0.55;0.45;;;16.60;82.60;;;;;;6133905;23;20484;-88
2022/08/05 03:10:07;;;;;;;0.52;0.38;;;16.60;82.60;;;;;;6137315;23;20024;-89
2022/08/05 03:12:36;;;;;;;0.43;0.30;;;16.60;82.70;;;;;;6129749;23;20024;-88
2022/08/05 03:15:04;;;;;;;0.57;0.30;;;16.60;82.70;;;;;;6129118;23;20507;-87
2022/08/05 03:17:33;;;;;;;0.82;0.28;;;16.60;82.70;;;;;;6130474;23;20530;-87
2022/08/05 03:20:08;;;;;;;0.98;0.50;;;16.60;82.70;;;;;;6131743;23;20017;-88
2022/08/05 03:22:36;;;;;;;1.85;0.50;;;16.50;82.80;;;;;;6130150;23;20043;-89
2022/08/05 03:25:10;;;;;;;0.30;0.10;;;16.50;82.80;;;;;;6134494;23;20469;-89
2022/08/05 03:27:57;;;;;;;0.32;0.22;;;16.40;82.80;;;;;;6139070;23;20080;-90
2022/08/05 03:30:27;;;;;;;0.30;0.30;;;16.40;82.70;;;;;;6131724;23;20097;-87
2022/08/05 03:33:04;;;;;;;0.73;0.30;;;16.30;83.00;;;;;;6133876;23;20028;-88
2022/08/05 03:35:32;;;;;;;1.10;0.50;;;16.30;83.10;;;;;;6131582;23;20031;-90
2022/08/05 03:37:59;;;;;;;1.17;0.30;;;16.30;83.00;;;;;;6138342;23;20017;-89
2022/08/05 03:40:26;;;;;;;0.30;0.20;;;16.30;83.30;;;;;;6141288;23;20021;-91
2022/08/05 03:42:58;;;;;;;0.88;0.30;;;16.20;83.20;;;;;;6135688;23;20013;-92
2022/08/05 03:45:42;;;;;;;1.42;0.50;;;16.20;83.20;;;;;;6148468;23;20021;-92
2022/08/05 03:48:26;;;;;;;0.68;0.50;;;16.10;83.60;;;;;;6144238;23;20037;-90
2022/08/05 03:51:10;;;;;;;2.63;0.55;;;16.00;83.60;;;;;;6135221;23;20032;-89
2022/08/05 03:54:13;;;;;;;0.90;0.50;;;16.00;83.80;;;;;;6165325;23;20036;-90
2022/08/05 03:57:00;;;;;;;1.35;0.45;;;16.00;84.10;;;;;;6153946;23;20029;-91
2022/08/05 03:59:48;;;;;;;0.30;0.30;;;15.90;83.90;;;;;;6139603;23;20076;-90
2022/08/05 04:02:23;;;;;;;1.55;0.40;;;16.00;84.00;;;;;;6133607;23;20036;-93
2022/08/05 04:05:11;;;;;;;0.20;0.20;;;16.00;84.10;;;;;;6141693;23;20059;-89
2022/08/05 04:07:38;;;;;;;0.52;0.25;;;16.00;84.00;;;;;;6133499;23;20079;-89
2022/08/05 04:10:27;;;;;;;0.85;0.40;;;15.90;83.50;;;;;;6140580;23;20269;-92
2022/08/05 04:12:58;;;;;;;0.55;0.40;;;15.90;84.20;;;;;;6142994;23;20016;-92
2022/08/05 04:15:26;;;;;;;0.47;0.28;;;15.90;84.20;;;;;;6149028;23;20021;-88
2022/08/05 04:18:02;;;;;;;0.80;0.40;;;15.90;84.10;;;;;;6176154;23;20120;-89
2022/08/05 04:20:32;;;;;;;0.75;0.30;;;15.80;84.20;;;;;;6151263;23;20089;-90
2022/08/05 04:22:59;;;;;;;0.77;0.38;;;15.70;84.40;;;;;;6148670;23;20092;-91
2022/08/05 04:25:26;;;;;;;0.82;0.30;;;15.70;84.60;;;;;;6146963;23;20080;-90
2022/08/05 04:28:14;;;;;;;1.27;0.40;;;15.70;84.50;;;;;;6154157;23;20106;-90
2022/08/05 04:30:43;;;;;;;1.83;0.50;;;15.70;84.90;;;;;;6147519;23;20077;-90
2022/08/05 04:33:11;;;;;;;0.70;0.40;;;15.60;85.00;;;;;;6148879;23;20021;-91
2022/08/05 04:35:38;;;;;;;0.70;0.30;;;15.70;85.20;;;;;;6150853;23;20029;-89
2022/08/05 04:38:25;;;;;;;0.82;0.40;;;15.60;85.50;;;;;;6155712;23;20021;-92
2022/08/05 04:41:06;;;;;;;1.05;0.40;;;15.60;85.80;;;;;;6153610;23;20009;-89
2022/08/05 04:43:36;;;;;;;0.60;0.30;;;15.60;85.90;;;;;;6135636;23;20017;-90
2022/08/05 04:46:06;;;;;;;0.43;0.20;;;15.50;86.00;;;;;;6130214;23;20483;-90
2022/08/05 04:48:34;;;;;;;0.70;0.30;;;15.50;86.20;;;;;;6128015;23;20028;-89
2022/08/05 04:51:01;;;;;;;0.35;0.30;;;15.60;86.20;;;;;;6129249;23;20029;-90
2022/08/05 04:53:37;;;;;;;0.25;0.25;;;15.50;86.30;;;;;;6132254;23;20031;-92
2022/08/05 04:56:08;;;;;;;1.05;0.30;;;15.60;86.30;;;;;;6129799;23;20288;-88
2022/08/05 04:58:55;;;;;;;0.28;0.20;;;15.60;86.20;;;;;;6150947;23;20321;-90
2022/08/05 05:01:22;;;;;;;0.60;0.38;;;15.50;86.40;;;;;;6132777;23;20021;-90
2022/08/05 05:04:09;;;;;;;0.77;0.32;;;15.50;86.50;;;;;;6138811;23;20025;-90
2022/08/05 05:06:37;;;;;;;0.30;0.30;;;15.40;86.60;;;;;;6130760;23;20029;-92
2022/08/05 05:09:11;;;;;;;1.70;0.50;;;15.40;86.50;;;;;;6134337;23;20116;-92
2022/08/05 05:11:43;;;;;;;0.57;0.47;;;15.40;86.50;;;;;;6135762;23;20047;-92
2022/08/05 05:14:21;;;;;;;1.75;0.60;;;15.50;86.30;;;;;;6136488;23;20025;-90
2022/08/05 05:16:58;;;;;;;0.45;0.20;;;15.40;86.10;;;;;;6133983;23;20371;-95
2022/08/05 05:19:26;;;;;;;0.77;0.38;;;15.50;85.90;;;;;;6130986;23;20032;-93
2022/08/05 05:22:03;;;;;;;0.80;0.38;;;15.50;85.90;;;;;;6145354;23;20100;-90
2022/08/05 05:24:50;;;;;;;0.65;0.32;;;15.50;85.90;;;;;;6160906;23;20084;-90
2022/08/05 05:27:25;;;;;;;0.20;0.20;;;15.50;85.80;;;;;;6155536;23;20025;-89
2022/08/05 05:30:15;;;;;;;0.20;0.10;;;15.50;85.70;;;;;;6153976;23;20353;-92
2022/08/05 05:32:56;;;;;;;1.30;0.50;;;15.50;85.80;;;;;;6142926;23;20076;-91
2022/08/05 05:35:28;;;;;;;0.57;0.30;;;15.50;85.20;;;;;;6153905;23;20028;-92
2022/08/05 05:38:03;;;;;;;0.80;0.40;;;15.50;85.00;;;;;;6153333;23;20019;-92
2022/08/05 05:40:34;;;;;;;0.38;0.28;;;15.50;85.00;;;;;;6139144;23;20108;-92
2022/08/05 05:43:02;;;;;;;0.45;0.30;;;15.50;85.40;;;;;;6134916;23;20071;-90
2022/08/05 05:45:29;;;;;;;0.93;0.40;;;15.50;84.80;;;;;;6157432;23;20468;-91
2022/08/05 05:47:59;;;;;;;0.43;0.22;;;15.50;84.80;;;;;;6132087;23;20047;-91
2022/08/05 05:50:34;;;;;;;2.78;0.52;;;15.40;85.00;;;;;;6134278;23;20291;-90
2022/08/05 05:53:14;;;;;;;0.90;0.40;;;15.40;85.10;;;;;;6133346;23;20041;-92
2022/08/05 05:55:49;;;;;;;0.98;0.32;;;15.40;85.20;;;;;;6132251;23;20017;-90
2022/08/05 05:58:27;;;;;;;0.65;0.30;;;15.40;85.00;;;;;;6137058;23;20020;-90
2022/08/05 06:00:59;;;;;;;0.35;0.20;;;15.40;85.50;;;;;;6137493;23;20025;-91
2022/08/05 06:03:42;;;;;;;1.25;0.35;;;15.40;85.40;;;;;;6136834;23;20017;-90
2022/08/05 06:06:27;;;;;;;0.35;0.17;;;15.50;85.80;;;;;;6139278;23;20491;-91
2022/08/05 06:08:58;;;;;;;0.10;0.10;;;15.50;85.50;;;;;;6132837;23;20027;-88
2022/08/05 06:11:26;;;;;;;1.17;0.40;;;15.50;85.80;;;;;;6132049;23;20017;-89
2022/08/05 06:13:55;;;;;;;0.38;0.22;;;15.60;85.60;;;;;;6133400;23;20388;-89
2022/08/05 06:16:22;;;;;;;0.90;0.30;;;15.60;85.60;;;;;;6133021;23;20019;-92
2022/08/05 06:19:00;;;;;;;0.43;0.30;;;15.70;85.50;;;;;;6135683;23;20025;-91
2022/08/05 06:21:34;;;;;;;1.25;0.40;;;15.60;84.80;;;;;;6133426;23;20033;-89
2022/08/05 06:24:05;;;;;;;0.97;0.50;;;15.70;84.70;;;;;;6129048;23;20021;-90
2022/08/05 06:26:41;;;;;;;0.98;0.40;;;15.70;84.50;;;;;;6128188;23;20056;-89
2022/08/05 06:29:19;;;;;;;0.70;0.30;;;15.80;84.70;;;;;;6129193;23;20633;-89
2022/08/05 06:32:07;;;;;;;1.15;0.57;;;15.70;84.20;;;;;;6137774;23;20028;-90
2022/08/05 06:34:54;;;;;;;2.05;0.40;;;15.70;84.30;;;;;;6137241;23;20096;-90
2022/08/05 06:37:25;;;;;;;1.23;0.50;;;15.70;84.50;;;;;;6130231;23;20028;-91
2022/08/05 06:40:13;;;;;;;0.80;0.50;;;15.80;84.60;;;;;;6139547;23;20087;-89
2022/08/05 06:42:46;;;;;;;0.95;0.40;;;15.80;84.30;;;;;;6134590;23;20017;-88
2022/08/05 06:45:18;;;;;;;1.98;0.82;;;15.80;83.80;;;;;;6133228;23;20025;-91
2022/08/05 06:48:06;;;;;;;1.05;0.40;;;15.80;84.00;;;;;;6140589;23;20017;-89
2022/08/05 06:50:53;;;;;;;2.38;0.75;;;15.80;83.50;;;;;;6140843;23;20448;-90
2022/08/05 06:53:21;;;;;;;0.77;0.40;;;15.90;83.70;;;;;;6142638;23;20151;-90
2022/08/05 06:55:56;;;;;;;1.25;0.52;;;15.80;83.20;;;;;;6145515;23;20364;-89
2022/08/05 06:58:23;;;;;;;0.60;0.30;;;15.80;83.40;;;;;;6138143;23;20017;-91
2022/08/05 07:01:03;;;;;;;1.08;0.30;;;15.90;83.60;;;;;;6139663;23;20076;-90
2022/08/05 07:03:31;;;;;;;2.40;0.60;;;16.00;83.20;;;;;;6135888;23;20017;-91
2022/08/05 07:06:03;;;;;;;1.90;0.68;;;16.00;83.30;;;;;;6125810;23;20033;-91
2022/08/05 07:08:43;;;;;;;0.60;0.30;;;16.10;82.60;;;;;;6130394;23;20451;-91
2022/08/05 07:11:17;;;;;;;0.52;0.25;;;16.10;82.60;;;;;;6129274;23;20104;-90
2022/08/05 07:16:59;;;;;;;1.05;0.38;;;16.20;80.70;;;;;;6171437;23;20069;-91
2022/08/05 07:19:52;;;;;;;1.58;0.52;;;16.20;80.70;;;;;;6131438;23;20022;-92
2022/08/05 07:22:40;;;;;;;1.90;0.52;;;16.20;80.60;;;;;;6131883;23;20033;-92
2022/08/05 07:25:08;;;;;;;1.17;0.50;;;16.30;81.00;;;;;;6125803;23;20033;-89
2022/08/05 07:27:55;;;;;;;2.28;0.60;;;16.30;80.20;;;;;;6131646;23;20076;-92
2022/08/05 07:30:32;;;;;;;1.05;0.30;;;16.30;79.80;;;;;;6130279;23;20056;-93
2022/08/05 07:33:04;;;;;;;1.92;0.57;;;16.40;80.70;;;;;;6135478;23;20365;-90
2022/08/05 07:35:39;;;;;;;1.90;0.65;;;16.40;79.90;;;;;;6129801;23;20025;-90
2022/08/05 07:38:29;;;;;;;1.35;0.60;;;16.40;79.30;;;;;;6135421;23;20454;-91
2022/08/05 07:41:09;;;;;;;2.00;0.80;;;16.50;79.80;;;;;;6128069;23;20025;-91
2022/08/05 07:43:56;;;;;;;2.90;0.70;;;16.40;79.70;;;;;;6135881;23;20414;-91
2022/08/05 07:46:28;;;;;;;1.25;0.50;;;16.50;80.00;;;;;;6133071;23;20021;-92
2022/08/05 07:48:57;;;;;;;1.33;0.60;;;16.60;80.20;;;;;;6137898;23;20028;-91
2022/08/05 07:51:31;;;;;;;1.70;0.50;;;16.70;80.00;;;;;;6144455;23;20520;-91
2022/08/05 07:54:05;;;;;;;1.77;0.93;;;16.70;79.70;;;;;;6134419;23;20017;-91
2022/08/05 07:56:36;;;;;;;1.00;0.43;;;16.70;79.90;;;;;;6128067;23;20029;-90
2022/08/05 07:59:23;;;;;;;1.10;0.57;;;16.80;80.30;;;;;;6128433;23;20022;-90
2022/08/05 08:02:06;;;;;;;1.52;0.70;;;16.80;79.40;;;;;;6129316;23;20425;-92
2022/08/05 08:04:43;;;;;;;0.82;0.32;;;16.90;79.70;;;;;;6137192;23;20021;-89
2022/08/05 08:07:12;;;;;;;0.70;0.50;;;17.00;79.20;;;;;;6096810;23;20041;-92
2022/08/05 08:09:39;;;;;;;0.63;0.30;;;17.00;79.20;;;;;;6098032;23;20089;-92
2022/08/05 08:12:06;;;;;;;2.58;0.75;;;17.00;78.90;;;;;;6097874;23;20026;-92
2022/08/05 08:14:53;;;;;;;0.80;0.60;;;17.00;78.80;;;;;;6101650;23;20049;-90
2022/08/05 08:17:20;;;;;;;1.30;0.63;;;16.90;79.30;;;;;;6097447;23;20459;-92
2022/08/05 08:19:49;;;;;;;1.70;0.50;;;17.00;79.60;;;;;;6099005;23;20061;-91
2022/08/05 08:22:36;;;;;;;2.15;0.52;;;17.00;79.20;;;;;;6102267;23;20022;-92
2022/08/05 08:25:03;;;;;;;2.55;0.63;;;17.20;79.70;;;;;;6095747;23;20078;-91
2022/08/05 08:27:43;;;;;;;2.50;0.95;;;17.30;79.20;;;;;;6098586;23;20025;-92
2022/08/05 08:30:17;;;;;;;1.08;0.30;;;17.30;79.10;;;;;;6098949;23;20034;-91
2022/08/05 08:33:08;;;;;;;1.33;0.50;;;17.40;79.30;;;;;;6104026;23;20014;-91
2022/08/05 08:35:40;;;;;;;1.67;0.63;;;17.50;77.90;;;;;;6100464;23;20322;-92
2022/08/05 08:38:19;;;;;;;1.80;0.60;;;17.50;78.40;;;;;;6102094;23;20117;-90
2022/08/05 08:41:07;;;;;;;1.52;0.60;;;17.60;77.80;;;;;;6102867;23;20030;-90
2022/08/05 08:43:35;;;;;;;0.38;0.28;;;17.60;78.40;;;;;;6104083;23;20053;-90
2022/08/05 08:46:23;;;;;;;2.65;1.00;;;17.60;78.70;;;;;;6102005;23;20528;-89
2022/08/05 08:48:51;;;;;;;0.85;0.50;;;17.60;77.70;;;;;;6098551;23;20029;-89
2022/08/05 08:51:38;;;;;;;0.75;0.40;;;17.60;76.40;;;;;;6103296;23;20040;-89
2022/08/05 08:54:25;;;;;;;0.57;0.30;;;17.60;77.10;;;;;;6101759;23;20097;-90
2022/08/05 08:56:53;;;;;;;1.45;0.43;;;17.80;76.90;;;;;;6099376;23;20097;-90
2022/08/05 08:59:22;;;;;;;0.93;0.47;;;17.90;76.60;;;;;;6098984;23;20026;-91
2022/08/05 09:01:59;;;;;;;1.13;0.55;;;18.00;77.40;;;;;;6100996;23;20122;-90
2022/08/05 09:04:27;;;;;;;1.63;0.60;;;18.00;76.30;;;;;;6098753;23;20018;-91
2022/08/05 09:06:56;;;;;;;1.83;0.50;;;18.10;76.70;;;;;;6127922;23;20033;-90
2022/08/05 09:09:24;;;;;;;1.08;0.57;;;18.10;77.10;;;;;;6127732;23;20029;-91
2022/08/05 09:12:06;;;;;;;1.02;0.52;;;18.20;76.80;;;;;;6130582;23;20335;-89
2022/08/05 09:14:52;;;;;;;1.13;0.40;;;18.30;76.70;;;;;;6131915;23;20020;-90
2022/08/05 09:17:31;;;;;;;2.22;0.57;;;18.30;76.20;;;;;;6129784;23;20047;-90
2022/08/05 09:20:15;;;;;;;2.28;0.57;;;18.20;75.70;;;;;;6132481;23;20097;-91
2022/08/05 09:23:12;;;;;;;0.63;0.40;;;18.30;77.20;;;;;;6132097;23;20104;-90
2022/08/05 09:25:53;;;;;;;1.13;0.50;;;18.40;75.60;;;;;;6127529;23;20017;-91
2022/08/05 09:28:34;;;;;;;0.88;0.50;;;18.50;74.40;;;;;;6130772;23;20080;-90
2022/08/05 09:31:13;;;;;;;0.73;0.43;;;18.60;74.40;;;;;;6128440;23;20040;-90
2022/08/05 09:34:03;;;;;;;0.80;0.40;;;18.60;76.20;;;;;;6133439;23;20068;-90
2022/08/05 09:36:43;;;;;;;0.73;0.30;;;18.70;75.30;;;;;;6136442;23;20116;-89
2022/08/05 09:39:23;;;;;;;0.38;0.30;;;18.70;73.60;;;;;;6138152;23;20037;-92
2022/08/05 09:42:10;;;;;;;0.40;0.22;;;18.80;74.00;;;;;;6140845;23;20088;-93
2022/08/05 09:44:54;;;;;;;0.73;0.30;;;18.90;74.50;;;;;;6141245;23;20036;-92
2022/08/05 09:47:42;;;;;;;0.30;0.30;;;19.00;73.60;;;;;;6134156;23;20036;-93
2022/08/05 09:50:33;;;;;;;0.40;0.32;;;19.10;72.50;;;;;;6135464;23;20021;-94
2022/08/05 09:53:10;;;;;;;0.82;0.40;;;19.20;71.90;;;;;;6139927;23;20024;-91
2022/08/05 09:55:59;;;;;;;1.13;0.35;;;19.30;72.00;;;;;;6134059;23;20056;-92
2022/08/05 09:58:38;;;;;;;1.40;0.57;;;19.30;70.50;;;;;;6131988;23;20017;-92
2022/08/05 10:01:10;;;;;;;0.68;0.40;;;19.30;71.60;;;;;;6130522;23;20031;-92
2022/08/05 10:04:03;;;;;;;1.88;0.63;;;19.20;71.30;;;;;;6133600;23;20025;-91
2022/08/05 10:06:39;;;;;;;0.95;0.50;;;19.30;71.70;;;;;;6133864;23;20026;-90
2022/08/05 10:09:17;;;;;;;0.45;0.40;;;19.50;70.90;;;;;;6135821;23;20092;-89
2022/08/05 10:11:54;;;;;;;1.48;0.60;;;19.60;70.90;;;;;;6133599;23;20047;-91
2022/08/05 10:14:27;;;;;;;1.38;0.50;;;19.70;69.60;;;;;;6125514;23;20021;-88
2022/08/05 10:17:11;;;;;;;0.93;0.65;;;19.70;69.70;;;;;;6125936;23;20515;-90
2022/08/05 10:19:58;;;;;;;1.10;0.50;;;19.80;69.20;;;;;;6129962;23;20499;-90
2022/08/05 10:22:30;;;;;;;0.60;0.20;;;19.80;68.60;;;;;;6126697;23;20028;-90
2022/08/05 10:25:00;;;;;;;1.13;0.60;;;19.80;68.40;;;;;;6123223;23;20017;-91
2022/08/05 10:27:27;;;;;;;0.88;0.55;;;19.90;68.20;;;;;;6124209;23;20025;-90
2022/08/05 10:30:15;;;;;;;0.90;0.38;;;19.90;67.10;;;;;;6128144;23;20049;-90
2022/08/05 10:33:02;;;;;;;0.80;0.43;;;19.90;67.70;;;;;;6130072;23;20088;-90
2022/08/05 10:35:35;;;;;;;;;;;19.90;64.60;;;;;;6134013;23;20088;-92
2022/08/05 10:38:10;;;;;;;0.60;0.30;;;20.10;66.00;;;;;;6132170;23;19963;-92
2022/08/05 10:41:05;;;;;;;1.20;0.40;;;20.20;66.30;;;;;;6130010;23;20021;-92
2022/08/05 10:43:40;;;;;;;0.38;0.30;;;20.20;66.00;;;;;;6121730;23;20024;-90
2022/08/05 10:46:09;;;;;;;0.60;0.50;;;20.30;66.10;;;;;;6154374;23;20017;-91
2022/08/05 10:48:41;;;;;;;0.95;0.28;;;20.30;66.50;;;;;;6130285;23;20048;-92
2022/08/05 10:51:25;;;;;;;0.55;0.30;;;20.40;67.10;;;;;;6138583;23;20445;-91
2022/08/05 10:53:55;;;;;;;0.38;0.20;;;20.50;66.90;;;;;;6148233;23;20021;-90
2022/08/05 10:56:27;;;;;;;0.52;0.20;;;20.50;67.20;;;;;;6168982;23;20036;-91
2022/08/05 10:58:58;;;;;;;0.28;0.22;;;20.60;68.00;;;;;;6143298;23;20021;-90
2022/08/05 11:01:40;;;;;;;;;;;20.80;67.70;;;;;;6169694;23;20040;-90
2022/08/05 11:04:28;;;;;;;0.47;0.47;;;20.70;66.20;;;;;;6143382;23;19968;-92
2022/08/05 11:07:00;;;;;;;0.57;0.30;;;20.80;66.80;;;;;;6134857;23;20124;-91
2022/08/05 11:09:28;;;;;;;0.60;0.30;;;20.80;67.00;;;;;;6156790;23;20013;-91
2022/08/05 11:12:40;;;;;;;0.73;0.30;;;20.90;66.20;;;;;;6136829;23;20060;-93
2022/08/05 11:15:20;;;;;;;1.02;0.40;;;20.90;66.50;;;;;;6156194;23;20072;-92
2022/08/05 11:17:51;;;;;;;1.25;0.50;;;20.90;67.00;;;;;;6152247;23;20041;-91
2022/08/05 11:20:44;;;;;;;0.47;0.20;;;21.00;66.60;;;;;;6133298;23;20022;-90
2022/08/05 11:23:35;;;;;;;0.68;0.30;;;21.00;66.30;;;;;;6125688;23;20120;-90
2022/08/05 11:26:22;;;;;;;0.68;0.30;;;21.00;66.30;;;;;;6147818;23;20119;-90
2022/08/05 11:28:57;;;;;;;0.30;0.20;;;21.10;65.80;;;;;;6126521;23;20176;-89
2022/08/05 11:31:39;;;;;;;0.57;0.40;;;21.40;66.00;;;;;;6131556;23;20076;-89
2022/08/05 11:34:37;;;;;;;0.90;0.40;;;21.60;65.60;;;;;;6131385;23;20049;-90
2022/08/05 11:37:05;;;;;;;1.02;0.45;;;21.80;65.50;;;;;;6128252;23;20393;-90
2022/08/05 11:39:52;;;;;;;1.10;0.60;;;21.70;65.20;;;;;;6131369;23;20025;-90
2022/08/05 11:42:29;;;;;;;3.17;0.75;;;21.70;65.50;;;;;;6130535;23;20022;-90
2022/08/05 11:45:01;;;;;;;1.48;0.60;;;22.00;64.50;;;;;;6127305;23;20099;-91
2022/08/05 11:47:29;;;;;;;0.93;0.60;;;22.20;64.40;;;;;;6125231;23;20076;-89
2022/08/05 11:50:16;;;;;;;0.95;0.65;;;22.30;64.40;;;;;;6130803;23;20021;-90
2022/08/05 11:52:43;;;;;;;0.82;0.68;;;22.40;63.60;;;;;;6129302;23;20028;-90
2022/08/05 11:55:14;;;;;;;0.50;0.40;;;22.60;63.30;;;;;;6127975;23;20126;-90
2022/08/05 11:57:45;;;;;;;0.75;0.50;;;22.90;63.00;;;;;;6128332;23;20017;-91
2022/08/05 12:00:32;;;;;;;0.45;0.35;;;23.30;61.70;;;;;;6132050;23;20127;-91
2022/08/05 12:03:20;;;;;;;0.47;0.40;;;23.30;61.50;;;;;;6128570;23;20022;-90
2022/08/05 12:06:04;;;;;;;2.35;0.40;;;23.50;61.20;;;;;;6140532;23;20053;-90
2022/08/05 12:08:50;;;;;;;0.20;0.20;;;23.50;60.70;;;;;;6138933;23;20544;-93
2022/08/05 12:11:19;;;;;;;1.85;0.70;;;23.30;60.00;;;;;;6131830;23;20017;-90
2022/08/05 12:13:56;;;;;;;0.50;0.50;;;23.00;60.50;;;;;;6153691;23;20025;-90
2022/08/05 12:16:35;;;;;;;0.90;0.50;;;23.10;60.80;;;;;;6175327;23;20018;-89
2022/08/05 12:19:09;;;;;;;1.00;0.70;;;23.60;60.80;;;;;;6127103;23;20021;-91
2022/08/05 12:21:56;;;;;;;0.93;0.70;;;24.20;60.00;;;;;;6129898;23;20456;-90
2022/08/05 12:24:23;;;;;;;0.55;0.52;;;24.70;60.10;;;;;;6128256;23;20453;-90
2022/08/05 12:26:52;;;;;;;0.70;0.57;;;25.00;59.30;;;;;;6130551;23;20036;-91
2022/08/05 12:29:21;;;;;;;0.60;0.40;;;25.30;59.50;;;;;;6127329;23;20018;-91
2022/08/05 12:31:56;;;;;;;0.90;0.40;;;25.20;59.00;;;;;;6127835;23;20017;-91
2022/08/05 12:34:35;;;;;;;0.98;0.52;;;24.80;59.00;;;;;;6125360;23;20032;-91
2022/08/05 12:37:12;;;;;;;0.75;0.50;;;24.60;59.90;;;;;;6128846;23;20021;-91
2022/08/05 12:39:43;;;;;;;0.63;0.60;;;25.00;59.60;;;;;;6128988;23;20076;-90
2022/08/05 12:42:18;;;;;;;0.70;0.38;;;25.60;58.60;;;;;;6129065;23;20017;-90
2022/08/05 12:44:45;;;;;;;0.43;0.40;;;25.90;57.80;;;;;;6126551;23;20029;-89
2022/08/05 12:47:13;;;;;;;0.70;0.40;;;25.90;57.50;;;;;;6129280;23;20021;-91
2022/08/05 12:49:45;;;;;;;1.33;0.60;;;25.70;57.10;;;;;;6128119;23;20101;-91
2022/08/05 12:52:30;;;;;;;0.65;0.50;;;25.80;58.50;;;;;;6130584;23;20455;-91
2022/08/05 12:55:22;;;;;;;1.10;0.38;;;26.20;57.20;;;;;;6130208;23;20036;-90
2022/08/05 12:57:52;;;;;;;1.23;0.63;;;26.80;56.80;;;;;;6127630;23;20076;-92
2022/08/05 13:00:44;;;;;;;0.90;0.30;;;27.50;55.90;;;;;;6130433;23;20081;-91
2022/08/05 13:03:34;;;;;;;0.40;0.40;;;27.50;55.10;;;;;;6132107;23;20057;-91
2022/08/05 13:06:14;;;;;;;1.00;0.50;;;28.00;54.60;;;;;;6128324;23;20049;-91
2022/08/05 13:08:42;;;;;;;0.20;0.20;;;28.10;54.30;;;;;;6126946;23;20013;-91
2022/08/05 13:11:19;;;;;;;0.50;0.50;;;27.10;54.30;;;;;;6128565;23;20029;-91
2022/08/05 13:14:24;;;;;;;0.40;0.40;;;27.00;55.30;;;;;;6131674;23;20021;-91
2022/08/05 13:17:06;;;;;;;0.68;0.50;;;28.00;54.20;;;;;;6123719;23;20097;-91
2022/08/05 13:19:33;;;;;;;1.00;0.50;;;28.10;54.00;;;;;;6124194;23;20021;-91
2022/08/05 13:22:19;;;;;;;0.47;0.47;;;28.30;54.40;;;;;;6128079;23;20076;-91
2022/08/05 13:24:56;;;;;;;0.50;0.40;;;28.90;52.70;;;;;;6123625;23;20026;-90
2022/08/05 13:27:31;;;;;;;0.75;0.38;;;28.70;53.20;;;;;;6124404;23;20025;-92
2022/08/05 13:30:06;;;;;;;0.60;0.30;;;28.80;52.70;;;;;;6146840;23;20488;-90
2022/08/05 13:32:55;;;;;;;0.88;0.40;;;27.80;53.20;;;;;;6124709;23;20083;-91
2022/08/05 13:35:27;;;;;;;0.60;0.57;;;26.70;54.60;;;;;;6122405;23;20029;-91
2022/08/05 13:38:09;;;;;;;1.27;0.60;;;26.40;54.90;;;;;;6124708;23;20353;-90
2022/08/05 13:40:56;;;;;;;0.40;0.40;;;26.90;54.90;;;;;;6126431;23;20104;-92
2022/08/05 13:43:23;;;;;;;1.00;0.50;;;28.00;53.70;;;;;;6123114;23;20018;-92
2022/08/05 13:46:11;;;;;;;0.57;0.50;;;28.60;53.80;;;;;;6126755;23;20075;-94
2022/08/05 13:48:38;;;;;;;0.47;0.40;;;29.00;52.60;;;;;;6123991;23;20712;-92
2022/08/05 13:51:31;;;;;;;0.30;0.30;;;29.30;52.90;;;;;;6135398;23;20025;-92